sensor_id;sensor_type;location;lat;lon;timestamp;P1;durP1;ratioP1;P2;durP2;ratioP2
7517;SDS011;3800;48.922;9.444;2023-06-24T00:00:00;4.90;;;4.40;;
7517;SDS011;3800;48.922;9.444;2023-06-24T00:02:28;4.70;;;4.23;;
7517;SDS011;3800;48.922;9.444;2023-06-24T00:04:56;5.17;;;4.20;;
7517;SDS011;3800;48.922;9.444;2023-06-24T00:07:25;4.80;;;4.40;;
7517;SDS011;3800;48.922;9.444;2023-06-24T00:09:53;5.10;;;4.53;;
7517;SDS011;3800;48.922;9.444;2023-06-24T00:12:21;5.50;;;4.97;;
7517;SDS011;3800;48.922;9.444;2023-06-24T00:14:50;6.17;;;4.73;;
7517;SDS011;3800;48.922;9.444;2023-06-24T00:17:19;5.47;;;4.70;;
7517;SDS011;3800;48.922;9.444;2023-06-24T00:19:47;5.17;;;4.67;;
7517;SDS011;3800;48.922;9.444;2023-06-24T00:22:15;5.30;;;4.80;;
7517;SDS011;3800;48.922;9.444;2023-06-24T00:24:44;5.67;;;5.07;;
7517;SDS011;3800;48.922;9.444;2023-06-24T00:27:13;5.30;;;4.80;;
7517;SDS011;3800;48.922;9.444;2023-06-24T00:29:41;5.27;;;4.80;;
7517;SDS011;3800;48.922;9.444;2023-06-24T00:32:10;6.03;;;5.10;;
7517;SDS011;3800;48.922;9.444;2023-06-24T00:34:39;5.37;;;4.20;;
7517;SDS011;3800;48.922;9.444;2023-06-24T00:37:08;5.00;;;4.50;;
7517;SDS011;3800;48.922;9.444;2023-06-24T00:39:36;4.90;;;4.40;;
7517;SDS011;3800;48.922;9.444;2023-06-24T00:42:04;5.20;;;4.70;;
7517;SDS011;3800;48.922;9.444;2023-06-24T00:44:33;4.87;;;4.40;;
7517;SDS011;3800;48.922;9.444;2023-06-24T00:47:02;4.93;;;4.40;;
7517;SDS011;3800;48.922;9.444;2023-06-24T00:49:33;4.60;;;4.20;;
7517;SDS011;3800;48.922;9.444;2023-06-24T00:52:02;4.73;;;4.33;;
7517;SDS011;3800;48.922;9.444;2023-06-24T00:54:30;5.10;;;4.33;;
7517;SDS011;3800;48.922;9.444;2023-06-24T00:56:58;6.13;;;5.00;;
7517;SDS011;3800;48.922;9.444;2023-06-24T00:59:28;5.10;;;4.60;;
7517;SDS011;3800;48.922;9.444;2023-06-24T01:01:56;4.97;;;4.47;;
7517;SDS011;3800;48.922;9.444;2023-06-24T01:04:26;5.07;;;4.57;;
7517;SDS011;3800;48.922;9.444;2023-06-24T01:06:54;5.13;;;4.67;;
7517;SDS011;3800;48.922;9.444;2023-06-24T01:09:23;6.43;;;5.10;;
7517;SDS011;3800;48.922;9.444;2023-06-24T01:11:51;4.73;;;4.23;;
7517;SDS011;3800;48.922;9.444;2023-06-24T01:14:19;5.03;;;4.53;;
7517;SDS011;3800;48.922;9.444;2023-06-24T01:16:52;4.83;;;4.40;;
7517;SDS011;3800;48.922;9.444;2023-06-24T01:19:26;4.80;;;4.23;;
7517;SDS011;3800;48.922;9.444;2023-06-24T01:22:15;4.90;;;4.40;;
7517;SDS011;3800;48.922;9.444;2023-06-24T01:24:58;4.73;;;4.33;;
7517;SDS011;3800;48.922;9.444;2023-06-24T01:28:20;4.97;;;4.20;;
7517;SDS011;3800;48.922;9.444;2023-06-24T01:31:05;4.60;;;4.20;;
7517;SDS011;3800;48.922;9.444;2023-06-24T01:33:40;4.57;;;4.17;;
7517;SDS011;3800;48.922;9.444;2023-06-24T01:36:18;6.30;;;4.43;;
7517;SDS011;3800;48.922;9.444;2023-06-24T01:38:48;5.90;;;5.13;;
7517;SDS011;3800;48.922;9.444;2023-06-24T01:41:16;5.33;;;4.83;;
7517;SDS011;3800;48.922;9.444;2023-06-24T01:43:43;5.07;;;4.57;;
7517;SDS011;3800;48.922;9.444;2023-06-24T01:46:11;5.87;;;5.30;;
7517;SDS011;3800;48.922;9.444;2023-06-24T01:48:39;5.20;;;4.70;;
7517;SDS011;3800;48.922;9.444;2023-06-24T01:51:10;6.00;;;4.90;;
7517;SDS011;3800;48.922;9.444;2023-06-24T01:53:39;4.90;;;4.40;;
7517;SDS011;3800;48.922;9.444;2023-06-24T01:56:08;5.40;;;4.90;;
7517;SDS011;3800;48.922;9.444;2023-06-24T01:58:36;4.97;;;4.47;;
7517;SDS011;3800;48.922;9.444;2023-06-24T02:01:05;6.10;;;5.07;;
7517;SDS011;3800;48.922;9.444;2023-06-24T02:03:33;5.50;;;4.90;;
7517;SDS011;3800;48.922;9.444;2023-06-24T02:06:01;5.80;;;5.30;;
7517;SDS011;3800;48.922;9.444;2023-06-24T02:08:30;7.17;;;4.70;;
7517;SDS011;3800;48.922;9.444;2023-06-24T02:10:59;5.53;;;4.97;;
7517;SDS011;3800;48.922;9.444;2023-06-24T02:13:27;6.60;;;5.00;;
7517;SDS011;3800;48.922;9.444;2023-06-24T02:15:55;5.83;;;5.33;;
7517;SDS011;3800;48.922;9.444;2023-06-24T02:18:23;5.07;;;4.40;;
7517;SDS011;3800;48.922;9.444;2023-06-24T02:20:53;5.50;;;4.87;;
7517;SDS011;3800;48.922;9.444;2023-06-24T02:23:21;5.70;;;5.20;;
7517;SDS011;3800;48.922;9.444;2023-06-24T02:25:50;6.13;;;5.53;;
7517;SDS011;3800;48.922;9.444;2023-06-24T02:28:18;5.00;;;4.60;;
7517;SDS011;3800;48.922;9.444;2023-06-24T02:30:46;5.63;;;5.10;;
7517;SDS011;3800;48.922;9.444;2023-06-24T02:33:14;6.60;;;5.27;;
7517;SDS011;3800;48.922;9.444;2023-06-24T02:35:43;6.03;;;5.43;;
7517;SDS011;3800;48.922;9.444;2023-06-24T02:38:12;5.83;;;5.23;;
7517;SDS011;3800;48.922;9.444;2023-06-24T02:40:42;6.77;;;5.27;;
7517;SDS011;3800;48.922;9.444;2023-06-24T02:43:08;6.20;;;5.60;;
7517;SDS011;3800;48.922;9.444;2023-06-24T02:45:38;5.47;;;4.97;;
7517;SDS011;3800;48.922;9.444;2023-06-24T02:48:06;6.83;;;5.73;;
7517;SDS011;3800;48.922;9.444;2023-06-24T02:50:34;6.30;;;5.63;;
7517;SDS011;3800;48.922;9.444;2023-06-24T02:53:02;6.20;;;5.60;;
7517;SDS011;3800;48.922;9.444;2023-06-24T02:55:32;9.67;;;6.37;;
7517;SDS011;3800;48.922;9.444;2023-06-24T02:57:59;6.37;;;5.77;;
7517;SDS011;3800;48.922;9.444;2023-06-24T03:00:28;7.50;;;6.27;;
7517;SDS011;3800;48.922;9.444;2023-06-24T03:02:56;6.50;;;5.63;;
7517;SDS011;3800;48.922;9.444;2023-06-24T03:05:25;8.17;;;6.47;;
7517;SDS011;3800;48.922;9.444;2023-06-24T03:07:53;7.77;;;6.60;;
7517;SDS011;3800;48.922;9.444;2023-06-24T03:10:23;6.60;;;6.00;;
7517;SDS011;3800;48.922;9.444;2023-06-24T03:12:51;6.43;;;5.83;;
7517;SDS011;3800;48.922;9.444;2023-06-24T03:15:19;5.67;;;5.17;;
7517;SDS011;3800;48.922;9.444;2023-06-24T03:17:47;7.77;;;6.40;;
7517;SDS011;3800;48.922;9.444;2023-06-24T03:20:15;6.80;;;6.10;;
7517;SDS011;3800;48.922;9.444;2023-06-24T03:22:44;6.87;;;6.10;;
7517;SDS011;3800;48.922;9.444;2023-06-24T03:25:14;6.40;;;5.80;;
7517;SDS011;3800;48.922;9.444;2023-06-24T03:27:42;6.63;;;5.93;;
7517;SDS011;3800;48.922;9.444;2023-06-24T03:30:10;6.37;;;5.87;;
7517;SDS011;3800;48.922;9.444;2023-06-24T03:32:39;5.73;;;5.13;;
7517;SDS011;3800;48.922;9.444;2023-06-24T03:35:07;6.10;;;5.30;;
7517;SDS011;3800;48.922;9.444;2023-06-24T03:37:36;6.70;;;5.30;;
7517;SDS011;3800;48.922;9.444;2023-06-24T03:40:05;5.90;;;5.30;;
7517;SDS011;3800;48.922;9.444;2023-06-24T03:42:35;6.43;;;5.33;;
7517;SDS011;3800;48.922;9.444;2023-06-24T03:45:03;6.73;;;6.03;;
7517;SDS011;3800;48.922;9.444;2023-06-24T03:47:32;7.70;;;6.27;;
7517;SDS011;3800;48.922;9.444;2023-06-24T03:50:00;7.07;;;5.77;;
7517;SDS011;3800;48.922;9.444;2023-06-24T03:52:28;6.10;;;5.50;;
7517;SDS011;3800;48.922;9.444;2023-06-24T03:54:56;6.10;;;5.50;;
7517;SDS011;3800;48.922;9.444;2023-06-24T03:57:25;6.10;;;5.60;;
7517;SDS011;3800;48.922;9.444;2023-06-24T03:59:55;5.97;;;5.23;;
7517;SDS011;3800;48.922;9.444;2023-06-24T04:02:23;6.93;;;5.00;;
7517;SDS011;3800;48.922;9.444;2023-06-24T04:04:52;6.17;;;5.57;;
7517;SDS011;3800;48.922;9.444;2023-06-24T04:07:21;6.07;;;5.47;;
7517;SDS011;3800;48.922;9.444;2023-06-24T04:09:49;6.23;;;5.17;;
7517;SDS011;3800;48.922;9.444;2023-06-24T04:12:17;7.10;;;5.30;;
7517;SDS011;3800;48.922;9.444;2023-06-24T04:14:46;6.13;;;5.17;;
7517;SDS011;3800;48.922;9.444;2023-06-24T04:17:15;6.13;;;5.63;;
7517;SDS011;3800;48.922;9.444;2023-06-24T04:19:43;6.97;;;5.80;;
7517;SDS011;3800;48.922;9.444;2023-06-24T04:22:11;7.23;;;6.00;;
7517;SDS011;3800;48.922;9.444;2023-06-24T04:24:39;8.27;;;6.20;;
7517;SDS011;3800;48.922;9.444;2023-06-24T04:27:08;6.57;;;5.97;;
7517;SDS011;3800;48.922;9.444;2023-06-24T04:29:37;7.03;;;6.33;;
7517;SDS011;3800;48.922;9.444;2023-06-24T04:32:05;10.00;;;6.43;;
7517;SDS011;3800;48.922;9.444;2023-06-24T04:34:34;7.23;;;6.53;;
7517;SDS011;3800;48.922;9.444;2023-06-24T04:37:02;7.23;;;6.53;;
7517;SDS011;3800;48.922;9.444;2023-06-24T04:39:30;8.93;;;6.63;;
7517;SDS011;3800;48.922;9.444;2023-06-24T04:41:59;7.23;;;6.47;;
7517;SDS011;3800;48.922;9.444;2023-06-24T04:44:27;7.00;;;6.30;;
7517;SDS011;3800;48.922;9.444;2023-06-24T04:46:55;7.20;;;6.50;;
7517;SDS011;3800;48.922;9.444;2023-06-24T04:49:23;10.07;;;6.63;;
7517;SDS011;3800;48.922;9.444;2023-06-24T04:51:52;7.07;;;6.33;;
7517;SDS011;3800;48.922;9.444;2023-06-24T04:54:20;7.03;;;6.40;;
7517;SDS011;3800;48.922;9.444;2023-06-24T04:56:49;8.93;;;6.20;;
7517;SDS011;3800;48.922;9.444;2023-06-24T04:59:17;9.37;;;6.67;;
7517;SDS011;3800;48.922;9.444;2023-06-24T05:01:45;8.67;;;7.00;;
7517;SDS011;3800;48.922;9.444;2023-06-24T05:04:14;7.33;;;6.20;;
7517;SDS011;3800;48.922;9.444;2023-06-24T05:06:43;6.47;;;5.90;;
7517;SDS011;3800;48.922;9.444;2023-06-24T05:09:11;7.27;;;6.57;;
7517;SDS011;3800;48.922;9.444;2023-06-24T05:11:40;11.07;;;6.50;;
7517;SDS011;3800;48.922;9.444;2023-06-24T05:14:09;10.27;;;6.30;;
7517;SDS011;3800;48.922;9.444;2023-06-24T05:16:37;6.70;;;6.00;;
7517;SDS011;3800;48.922;9.444;2023-06-24T05:19:06;9.43;;;6.13;;
7517;SDS011;3800;48.922;9.444;2023-06-24T05:21:34;6.97;;;6.23;;
7517;SDS011;3800;48.922;9.444;2023-06-24T05:24:02;7.27;;;6.50;;
7517;SDS011;3800;48.922;9.444;2023-06-24T05:26:31;7.17;;;6.47;;
7517;SDS011;3800;48.922;9.444;2023-06-24T05:28:59;6.63;;;6.03;;
7517;SDS011;3800;48.922;9.444;2023-06-24T05:31:27;6.93;;;6.30;;
7517;SDS011;3800;48.922;9.444;2023-06-24T05:33:56;7.77;;;6.77;;
7517;SDS011;3800;48.922;9.444;2023-06-24T05:36:24;7.10;;;6.40;;
7517;SDS011;3800;48.922;9.444;2023-06-24T05:38:52;7.33;;;6.63;;
7517;SDS011;3800;48.922;9.444;2023-06-24T05:41:20;6.90;;;6.17;;
7517;SDS011;3800;48.922;9.444;2023-06-24T05:43:49;8.83;;;6.83;;
7517;SDS011;3800;48.922;9.444;2023-06-24T05:46:17;7.23;;;6.50;;
7517;SDS011;3800;48.922;9.444;2023-06-24T05:48:45;7.13;;;6.43;;
7517;SDS011;3800;48.922;9.444;2023-06-24T05:51:14;6.40;;;5.80;;
7517;SDS011;3800;48.922;9.444;2023-06-24T05:53:43;6.63;;;6.03;;
7517;SDS011;3800;48.922;9.444;2023-06-24T05:56:11;6.60;;;5.23;;
7517;SDS011;3800;48.922;9.444;2023-06-24T05:58:39;6.10;;;5.60;;
7517;SDS011;3800;48.922;9.444;2023-06-24T06:01:09;7.13;;;5.93;;
7517;SDS011;3800;48.922;9.444;2023-06-24T06:03:37;6.40;;;5.80;;
7517;SDS011;3800;48.922;9.444;2023-06-24T06:06:06;6.37;;;5.20;;
7517;SDS011;3800;48.922;9.444;2023-06-24T06:08:34;5.93;;;4.93;;
7517;SDS011;3800;48.922;9.444;2023-06-24T06:11:03;5.83;;;5.20;;
7517;SDS011;3800;48.922;9.444;2023-06-24T06:15:58;6.10;;;5.37;;
7517;SDS011;3800;48.922;9.444;2023-06-24T06:18:26;6.23;;;5.50;;
7517;SDS011;3800;48.922;9.444;2023-06-24T06:20:54;6.23;;;4.90;;
7517;SDS011;3800;48.922;9.444;2023-06-24T06:23:23;5.90;;;5.27;;
7517;SDS011;3800;48.922;9.444;2023-06-24T06:25:51;5.07;;;4.57;;
7517;SDS011;3800;48.922;9.444;2023-06-24T06:28:19;5.20;;;4.70;;
7517;SDS011;3800;48.922;9.444;2023-06-24T06:30:48;5.87;;;5.30;;
7517;SDS011;3800;48.922;9.444;2023-06-24T06:33:16;5.80;;;5.17;;
7517;SDS011;3800;48.922;9.444;2023-06-24T06:35:45;5.80;;;5.20;;
7517;SDS011;3800;48.922;9.444;2023-06-24T06:38:13;5.10;;;4.70;;
7517;SDS011;3800;48.922;9.444;2023-06-24T06:40:41;5.63;;;4.83;;
7517;SDS011;3800;48.922;9.444;2023-06-24T06:43:10;5.50;;;5.00;;
7517;SDS011;3800;48.922;9.444;2023-06-24T06:45:38;5.17;;;4.67;;
7517;SDS011;3800;48.922;9.444;2023-06-24T06:48:06;5.50;;;5.00;;
7517;SDS011;3800;48.922;9.444;2023-06-24T06:50:34;5.30;;;4.80;;
7517;SDS011;3800;48.922;9.444;2023-06-24T06:53:03;5.30;;;4.80;;
7517;SDS011;3800;48.922;9.444;2023-06-24T06:55:32;5.73;;;4.80;;
7517;SDS011;3800;48.922;9.444;2023-06-24T06:58:00;5.67;;;4.60;;
7517;SDS011;3800;48.922;9.444;2023-06-24T07:00:29;6.10;;;4.80;;
7517;SDS011;3800;48.922;9.444;2023-06-24T07:02:57;5.23;;;4.73;;
7517;SDS011;3800;48.922;9.444;2023-06-24T07:05:25;5.07;;;4.57;;
7517;SDS011;3800;48.922;9.444;2023-06-24T07:07:54;6.87;;;5.00;;
7517;SDS011;3800;48.922;9.444;2023-06-24T07:10:22;5.97;;;4.80;;
7517;SDS011;3800;48.922;9.444;2023-06-24T07:12:50;5.47;;;4.93;;
7517;SDS011;3800;48.922;9.444;2023-06-24T07:15:19;5.53;;;5.03;;
7517;SDS011;3800;48.922;9.444;2023-06-24T07:17:48;5.47;;;4.63;;
7517;SDS011;3800;48.922;9.444;2023-06-24T07:20:16;4.67;;;4.23;;
7517;SDS011;3800;48.922;9.444;2023-06-24T07:22:45;5.17;;;4.50;;
7517;SDS011;3800;48.922;9.444;2023-06-24T07:25:13;6.27;;;4.53;;
7517;SDS011;3800;48.922;9.444;2023-06-24T07:27:41;5.10;;;4.60;;
7517;SDS011;3800;48.922;9.444;2023-06-24T07:30:10;5.13;;;4.63;;
7517;SDS011;3800;48.922;9.444;2023-06-24T07:32:38;5.83;;;4.67;;
7517;SDS011;3800;48.922;9.444;2023-06-24T07:35:07;5.20;;;4.70;;
7517;SDS011;3800;48.922;9.444;2023-06-24T07:37:35;6.20;;;5.10;;
7517;SDS011;3800;48.922;9.444;2023-06-24T07:40:04;5.37;;;4.63;;
7517;SDS011;3800;48.922;9.444;2023-06-24T07:42:34;4.30;;;3.80;;
7517;SDS011;3800;48.922;9.444;2023-06-24T07:45:02;4.63;;;3.97;;
7517;SDS011;3800;48.922;9.444;2023-06-24T07:47:30;4.13;;;3.80;;
7517;SDS011;3800;48.922;9.444;2023-06-24T07:49:59;4.60;;;4.20;;
7517;SDS011;3800;48.922;9.444;2023-06-24T07:52:27;6.23;;;4.33;;
7517;SDS011;3800;48.922;9.444;2023-06-24T07:54:56;4.23;;;3.83;;
7517;SDS011;3800;48.922;9.444;2023-06-24T07:57:24;4.13;;;3.73;;
7517;SDS011;3800;48.922;9.444;2023-06-24T07:59:52;4.43;;;4.00;;
7517;SDS011;3800;48.922;9.444;2023-06-24T08:02:20;4.53;;;3.83;;
7517;SDS011;3800;48.922;9.444;2023-06-24T08:04:49;4.23;;;3.83;;
7517;SDS011;3800;48.922;9.444;2023-06-24T08:07:17;4.00;;;3.70;;
7517;SDS011;3800;48.922;9.444;2023-06-24T08:09:45;4.27;;;3.87;;
7517;SDS011;3800;48.922;9.444;2023-06-24T08:12:14;4.13;;;3.73;;
7517;SDS011;3800;48.922;9.444;2023-06-24T08:14:43;4.30;;;3.90;;
7517;SDS011;3800;48.922;9.444;2023-06-24T08:17:11;5.67;;;4.47;;
7517;SDS011;3800;48.922;9.444;2023-06-24T08:19:39;4.53;;;3.67;;
7517;SDS011;3800;48.922;9.444;2023-06-24T08:22:08;4.00;;;3.60;;
7517;SDS011;3800;48.922;9.444;2023-06-24T08:24:37;4.53;;;3.83;;
7517;SDS011;3800;48.922;9.444;2023-06-24T08:27:05;4.10;;;3.57;;
7517;SDS011;3800;48.922;9.444;2023-06-24T08:29:33;4.40;;;3.70;;
7517;SDS011;3800;48.922;9.444;2023-06-24T08:32:01;4.37;;;3.83;;
7517;SDS011;3800;48.922;9.444;2023-06-24T08:34:30;4.57;;;4.00;;
7517;SDS011;3800;48.922;9.444;2023-06-24T08:36:58;5.07;;;4.20;;
7517;SDS011;3800;48.922;9.444;2023-06-24T08:39:26;4.00;;;3.60;;
7517;SDS011;3800;48.922;9.444;2023-06-24T08:41:55;5.77;;;3.97;;
7517;SDS011;3800;48.922;9.444;2023-06-24T08:44:24;5.13;;;4.20;;
7517;SDS011;3800;48.922;9.444;2023-06-24T08:46:52;4.30;;;3.47;;
7517;SDS011;3800;48.922;9.444;2023-06-24T08:49:28;4.60;;;3.73;;
7517;SDS011;3800;48.922;9.444;2023-06-24T08:52:06;3.77;;;3.37;;
7517;SDS011;3800;48.922;9.444;2023-06-24T08:54:33;4.40;;;3.70;;
7517;SDS011;3800;48.922;9.444;2023-06-24T08:57:00;4.00;;;3.67;;
7517;SDS011;3800;48.922;9.444;2023-06-24T08:59:33;4.13;;;3.80;;
7517;SDS011;3800;48.922;9.444;2023-06-24T09:02:02;4.47;;;4.00;;
7517;SDS011;3800;48.922;9.444;2023-06-24T09:04:30;4.07;;;3.57;;
7517;SDS011;3800;48.922;9.444;2023-06-24T09:06:58;4.67;;;3.80;;
7517;SDS011;3800;48.922;9.444;2023-06-24T09:09:29;3.27;;;2.97;;
7517;SDS011;3800;48.922;9.444;2023-06-24T09:11:59;3.53;;;3.23;;
7517;SDS011;3800;48.922;9.444;2023-06-24T09:14:29;3.77;;;3.47;;
7517;SDS011;3800;48.922;9.444;2023-06-24T09:16:59;3.43;;;3.13;;
7517;SDS011;3800;48.922;9.444;2023-06-24T09:19:28;4.13;;;3.70;;
7517;SDS011;3800;48.922;9.444;2023-06-24T09:22:03;3.70;;;3.40;;
7517;SDS011;3800;48.922;9.444;2023-06-24T09:24:31;5.33;;;3.70;;
7517;SDS011;3800;48.922;9.444;2023-06-24T09:26:59;4.13;;;3.17;;
7517;SDS011;3800;48.922;9.444;2023-06-24T09:29:28;3.33;;;3.03;;
7517;SDS011;3800;48.922;9.444;2023-06-24T09:31:55;4.17;;;3.53;;
7517;SDS011;3800;48.922;9.444;2023-06-24T09:34:24;3.70;;;3.40;;
7517;SDS011;3800;48.922;9.444;2023-06-24T09:36:52;3.47;;;3.17;;
7517;SDS011;3800;48.922;9.444;2023-06-24T09:39:20;3.57;;;3.27;;
7517;SDS011;3800;48.922;9.444;2023-06-24T09:41:49;3.60;;;3.30;;
7517;SDS011;3800;48.922;9.444;2023-06-24T09:44:17;4.07;;;3.67;;
7517;SDS011;3800;48.922;9.444;2023-06-24T09:46:46;3.47;;;3.17;;
7517;SDS011;3800;48.922;9.444;2023-06-24T09:49:15;4.00;;;3.17;;
7517;SDS011;3800;48.922;9.444;2023-06-24T09:51:44;3.23;;;2.93;;
7517;SDS011;3800;48.922;9.444;2023-06-24T09:54:13;4.10;;;3.00;;
7517;SDS011;3800;48.922;9.444;2023-06-24T09:56:42;3.70;;;3.40;;
7517;SDS011;3800;48.922;9.444;2023-06-24T09:59:10;5.20;;;3.50;;
7517;SDS011;3800;48.922;9.444;2023-06-24T10:01:39;3.80;;;3.40;;
7517;SDS011;3800;48.922;9.444;2023-06-24T10:04:07;4.47;;;3.50;;
7517;SDS011;3800;48.922;9.444;2023-06-24T10:06:35;4.17;;;3.30;;
7517;SDS011;3800;48.922;9.444;2023-06-24T10:09:04;3.87;;;3.47;;
7517;SDS011;3800;48.922;9.444;2023-06-24T10:11:32;3.43;;;3.13;;
7517;SDS011;3800;48.922;9.444;2023-06-24T10:14:01;3.57;;;3.27;;
7517;SDS011;3800;48.922;9.444;2023-06-24T10:16:29;4.23;;;3.10;;
7517;SDS011;3800;48.922;9.444;2023-06-24T10:18:59;3.10;;;2.80;;
7517;SDS011;3800;48.922;9.444;2023-06-24T10:21:43;3.33;;;3.03;;
7517;SDS011;3800;48.922;9.444;2023-06-24T10:24:27;3.90;;;2.50;;
7517;SDS011;3800;48.922;9.444;2023-06-24T10:27:02;3.50;;;2.80;;
7517;SDS011;3800;48.922;9.444;2023-06-24T10:29:31;2.97;;;2.67;;
7517;SDS011;3800;48.922;9.444;2023-06-24T10:32:07;4.30;;;2.77;;
7517;SDS011;3800;48.922;9.444;2023-06-24T10:34:39;3.40;;;3.10;;
7517;SDS011;3800;48.922;9.444;2023-06-24T10:37:11;3.93;;;3.33;;
7517;SDS011;3800;48.922;9.444;2023-06-24T10:39:44;3.60;;;3.00;;
7517;SDS011;3800;48.922;9.444;2023-06-24T10:47:46;3.30;;;3.00;;
7517;SDS011;3800;48.922;9.444;2023-06-24T10:50:14;3.10;;;2.80;;
7517;SDS011;3800;48.922;9.444;2023-06-24T10:52:44;3.47;;;2.97;;
7517;SDS011;3800;48.922;9.444;2023-06-24T10:55:15;4.00;;;3.00;;
7517;SDS011;3800;48.922;9.444;2023-06-24T10:57:44;3.80;;;3.03;;
7517;SDS011;3800;48.922;9.444;2023-06-24T11:00:12;4.07;;;3.10;;
7517;SDS011;3800;48.922;9.444;2023-06-24T11:02:42;3.03;;;2.73;;
7517;SDS011;3800;48.922;9.444;2023-06-24T11:05:10;3.20;;;2.90;;
7517;SDS011;3800;48.922;9.444;2023-06-24T11:07:38;4.53;;;3.20;;
7517;SDS011;3800;48.922;9.444;2023-06-24T11:10:07;2.97;;;2.77;;
7517;SDS011;3800;48.922;9.444;2023-06-24T11:12:37;3.20;;;2.90;;
7517;SDS011;3800;48.922;9.444;2023-06-24T11:15:06;3.10;;;2.67;;
7517;SDS011;3800;48.922;9.444;2023-06-24T11:17:36;3.73;;;2.73;;
7517;SDS011;3800;48.922;9.444;2023-06-24T11:20:06;3.00;;;2.70;;
7517;SDS011;3800;48.922;9.444;2023-06-24T11:22:37;3.40;;;3.10;;
7517;SDS011;3800;48.922;9.444;2023-06-24T11:25:05;4.17;;;3.20;;
7517;SDS011;3800;48.922;9.444;2023-06-24T11:27:34;3.43;;;3.03;;
7517;SDS011;3800;48.922;9.444;2023-06-24T11:30:02;3.40;;;3.10;;
7517;SDS011;3800;48.922;9.444;2023-06-24T11:32:38;4.00;;;3.20;;
7517;SDS011;3800;48.922;9.444;2023-06-24T11:35:07;3.50;;;3.20;;
7517;SDS011;3800;48.922;9.444;2023-06-24T11:37:35;4.03;;;2.90;;
7517;SDS011;3800;48.922;9.444;2023-06-24T11:40:04;4.60;;;2.87;;
7517;SDS011;3800;48.922;9.444;2023-06-24T11:42:35;4.37;;;3.47;;
7517;SDS011;3800;48.922;9.444;2023-06-24T11:45:04;2.93;;;2.63;;
7517;SDS011;3800;48.922;9.444;2023-06-24T11:47:33;3.77;;;2.63;;
7517;SDS011;3800;48.922;9.444;2023-06-24T11:50:02;3.90;;;2.67;;
7517;SDS011;3800;48.922;9.444;2023-06-24T11:52:48;3.20;;;2.90;;
7517;SDS011;3800;48.922;9.444;2023-06-24T11:55:20;3.00;;;2.70;;
7517;SDS011;3800;48.922;9.444;2023-06-24T11:57:49;3.13;;;2.80;;
7517;SDS011;3800;48.922;9.444;2023-06-24T12:00:26;3.40;;;3.03;;
7517;SDS011;3800;48.922;9.444;2023-06-24T12:02:58;3.33;;;2.80;;
7517;SDS011;3800;48.922;9.444;2023-06-24T12:05:30;3.07;;;2.73;;
7517;SDS011;3800;48.922;9.444;2023-06-24T12:08:00;4.10;;;2.70;;
7517;SDS011;3800;48.922;9.444;2023-06-24T12:10:27;3.00;;;2.70;;
7517;SDS011;3800;48.922;9.444;2023-06-24T12:12:56;3.13;;;2.83;;
7517;SDS011;3800;48.922;9.444;2023-06-24T12:15:24;4.30;;;2.90;;
7517;SDS011;3800;48.922;9.444;2023-06-24T12:17:52;3.43;;;3.00;;
7517;SDS011;3800;48.922;9.444;2023-06-24T12:20:21;2.97;;;2.70;;
7517;SDS011;3800;48.922;9.444;2023-06-24T12:22:49;3.27;;;2.97;;
7517;SDS011;3800;48.922;9.444;2023-06-24T12:25:17;2.83;;;2.63;;
7517;SDS011;3800;48.922;9.444;2023-06-24T12:27:45;3.03;;;2.57;;
7517;SDS011;3800;48.922;9.444;2023-06-24T12:30:14;3.10;;;2.80;;
7517;SDS011;3800;48.922;9.444;2023-06-24T12:32:42;2.93;;;2.60;;
7517;SDS011;3800;48.922;9.444;2023-06-24T12:35:10;3.23;;;2.93;;
7517;SDS011;3800;48.922;9.444;2023-06-24T12:37:39;3.30;;;3.00;;
7517;SDS011;3800;48.922;9.444;2023-06-24T12:40:08;3.13;;;2.83;;
7517;SDS011;3800;48.922;9.444;2023-06-24T12:42:36;3.07;;;2.70;;
7517;SDS011;3800;48.922;9.444;2023-06-24T12:45:05;3.13;;;2.83;;
7517;SDS011;3800;48.922;9.444;2023-06-24T12:47:34;3.80;;;2.63;;
7517;SDS011;3800;48.922;9.444;2023-06-24T12:50:03;3.43;;;2.93;;
7517;SDS011;3800;48.922;9.444;2023-06-24T12:52:34;3.37;;;2.80;;
7517;SDS011;3800;48.922;9.444;2023-06-24T12:55:02;2.80;;;2.60;;
7517;SDS011;3800;48.922;9.444;2023-06-24T12:57:31;3.47;;;2.73;;
7517;SDS011;3800;48.922;9.444;2023-06-24T12:59:59;3.17;;;2.87;;
7517;SDS011;3800;48.922;9.444;2023-06-24T13:02:28;2.93;;;2.73;;
7517;SDS011;3800;48.922;9.444;2023-06-24T13:04:56;3.27;;;2.57;;
7517;SDS011;3800;48.922;9.444;2023-06-24T13:07:24;3.17;;;2.87;;
7517;SDS011;3800;48.922;9.444;2023-06-24T13:09:53;3.67;;;2.80;;
7517;SDS011;3800;48.922;9.444;2023-06-24T13:12:21;3.33;;;3.03;;
7517;SDS011;3800;48.922;9.444;2023-06-24T13:14:49;2.97;;;2.77;;
7517;SDS011;3800;48.922;9.444;2023-06-24T13:17:17;3.40;;;2.80;;
7517;SDS011;3800;48.922;9.444;2023-06-24T13:19:46;3.80;;;2.90;;
7517;SDS011;3800;48.922;9.444;2023-06-24T13:22:14;2.70;;;2.50;;
7517;SDS011;3800;48.922;9.444;2023-06-24T13:24:43;2.90;;;2.60;;
7517;SDS011;3800;48.922;9.444;2023-06-24T13:27:12;2.90;;;2.70;;
7517;SDS011;3800;48.922;9.444;2023-06-24T13:29:41;2.90;;;2.70;;
7517;SDS011;3800;48.922;9.444;2023-06-24T13:32:10;3.97;;;2.70;;
7517;SDS011;3800;48.922;9.444;2023-06-24T13:34:38;3.83;;;2.57;;
7517;SDS011;3800;48.922;9.444;2023-06-24T13:37:07;3.20;;;2.90;;
7517;SDS011;3800;48.922;9.444;2023-06-24T13:39:35;3.10;;;2.80;;
7517;SDS011;3800;48.922;9.444;2023-06-24T13:42:04;3.40;;;3.10;;
7517;SDS011;3800;48.922;9.444;2023-06-24T13:44:32;3.20;;;2.90;;
7517;SDS011;3800;48.922;9.444;2023-06-24T13:47:01;3.83;;;2.73;;
7517;SDS011;3800;48.922;9.444;2023-06-24T13:49:33;3.43;;;2.40;;
7517;SDS011;3800;48.922;9.444;2023-06-24T13:52:01;2.90;;;2.60;;
7517;SDS011;3800;48.922;9.444;2023-06-24T13:54:29;3.00;;;2.70;;
7517;SDS011;3800;48.922;9.444;2023-06-24T13:56:59;4.37;;;3.90;;
7517;SDS011;3800;48.922;9.444;2023-06-24T13:59:27;4.07;;;2.80;;
7517;SDS011;3800;48.922;9.444;2023-06-24T14:01:55;3.00;;;2.70;;
7517;SDS011;3800;48.922;9.444;2023-06-24T14:04:24;2.80;;;2.50;;
7517;SDS011;3800;48.922;9.444;2023-06-24T14:06:52;4.07;;;2.87;;
7517;SDS011;3800;48.922;9.444;2023-06-24T14:09:20;3.70;;;2.93;;
7517;SDS011;3800;48.922;9.444;2023-06-24T14:11:49;3.67;;;2.40;;
7517;SDS011;3800;48.922;9.444;2023-06-24T14:14:17;2.60;;;2.40;;
7517;SDS011;3800;48.922;9.444;2023-06-24T14:16:45;2.70;;;2.50;;
7517;SDS011;3800;48.922;9.444;2023-06-24T14:19:13;2.83;;;2.60;;
7517;SDS011;3800;48.922;9.444;2023-06-24T14:21:42;3.33;;;3.03;;
7517;SDS011;3800;48.922;9.444;2023-06-24T14:24:10;3.63;;;3.23;;
7517;SDS011;3800;48.922;9.444;2023-06-24T14:26:38;2.70;;;2.50;;
7517;SDS011;3800;48.922;9.444;2023-06-24T14:29:07;3.23;;;2.77;;
7517;SDS011;3800;48.922;9.444;2023-06-24T14:31:37;2.57;;;2.37;;
7517;SDS011;3800;48.922;9.444;2023-06-24T14:34:05;2.87;;;2.40;;
7517;SDS011;3800;48.922;9.444;2023-06-24T14:36:33;2.73;;;2.43;;
7517;SDS011;3800;48.922;9.444;2023-06-24T14:39:01;2.73;;;2.40;;
7517;SDS011;3800;48.922;9.444;2023-06-24T14:41:30;3.50;;;2.83;;
7517;SDS011;3800;48.922;9.444;2023-06-24T14:43:59;2.93;;;2.63;;
7517;SDS011;3800;48.922;9.444;2023-06-24T14:46:27;2.63;;;2.43;;
7517;SDS011;3800;48.922;9.444;2023-06-24T14:48:55;3.27;;;2.60;;
7517;SDS011;3800;48.922;9.444;2023-06-24T14:51:24;2.77;;;2.57;;
7517;SDS011;3800;48.922;9.444;2023-06-24T14:53:52;2.87;;;2.60;;
7517;SDS011;3800;48.922;9.444;2023-06-24T14:56:21;2.60;;;2.40;;
7517;SDS011;3800;48.922;9.444;2023-06-24T14:58:50;2.73;;;2.43;;
7517;SDS011;3800;48.922;9.444;2023-06-24T15:01:19;2.97;;;2.50;;
7517;SDS011;3800;48.922;9.444;2023-06-24T15:03:47;5.87;;;2.63;;
7517;SDS011;3800;48.922;9.444;2023-06-24T15:06:15;2.93;;;2.50;;
7517;SDS011;3800;48.922;9.444;2023-06-24T15:08:44;3.20;;;2.77;;
7517;SDS011;3800;48.922;9.444;2023-06-24T15:11:12;2.90;;;2.53;;
7517;SDS011;3800;48.922;9.444;2023-06-24T15:13:40;2.60;;;2.40;;
7517;SDS011;3800;48.922;9.444;2023-06-24T15:16:08;2.53;;;2.30;;
7517;SDS011;3800;48.922;9.444;2023-06-24T15:18:44;4.03;;;2.90;;
7517;SDS011;3800;48.922;9.444;2023-06-24T15:21:13;2.63;;;2.43;;
7517;SDS011;3800;48.922;9.444;2023-06-24T15:23:42;2.73;;;2.47;;
7517;SDS011;3800;48.922;9.444;2023-06-24T15:26:10;3.33;;;2.50;;
7517;SDS011;3800;48.922;9.444;2023-06-24T15:28:39;2.20;;;2.00;;
7517;SDS011;3800;48.922;9.444;2023-06-24T15:31:07;3.33;;;2.37;;
7517;SDS011;3800;48.922;9.444;2023-06-24T15:33:35;3.10;;;2.60;;